Time;durP1;ratioP1;P1;durP2;ratioP2;P2;SDS_P1;SDS_P2;PMS_P1;PMS_P2;Temp;Humidity;BMP_temperature;BMP_pressure;BME280_temperature;BME280_humidity;BME280_pressure;Samples;Min_cycle;Max_cycle;Signal;HPM_P1;HPM_P2
2022/07/17 00:01:17;;;;;;;;;;;;;;;14.26;100.00;102771.91;5071352;28;20286;-58
2022/07/17 00:03:43;;;;;;;;;;;;;;;14.22;100.00;102780.91;5070220;28;20286;-58
2022/07/17 00:06:08;;;;;;;;;;;;;;;14.20;100.00;102780.94;5071471;28;19929;-58
2022/07/17 00:08:33;;;;;;;;;;;;;;;14.18;100.00;102788.13;5071408;28;19921;-58
2022/07/17 00:10:58;;;;;;;;;;;;;;;14.17;100.00;102775.72;5071429;28;19920;-58
2022/07/17 00:13:24;;;;;;;;;;;;;;;14.17;100.00;102772.16;5071738;28;19913;-58
2022/07/17 00:15:49;;;;;;;;;;;;;;;14.14;100.00;102764.28;5075092;28;20015;-58
2022/07/17 00:18:15;;;;;;;;;;;;;;;14.09;100.00;102773.28;5075492;28;19924;-58
2022/07/17 00:20:40;;;;;;;;;;;;;;;14.05;100.00;102776.94;5075095;28;19960;-58
2022/07/17 00:23:05;;;;;;;;;;;;;;;14.02;100.00;102779.69;5075773;28;19970;-58
2022/07/17 00:25:32;;;;;;;;;;;;;;;14.03;100.00;102780.56;5074073;28;19917;-58
2022/07/17 00:27:57;;;;;;;;;;;;;;;14.03;100.00;102776.09;5075119;28;20387;-55
2022/07/17 00:30:23;;;;;;;;;;;;;;;14.03;100.00;102773.44;5075451;28;19920;-58
2022/07/17 00:32:48;;;;;;;;;;;;;;;13.98;100.00;102771.81;5074936;28;19924;-58
2022/07/17 00:35:13;;;;;;;;;;;;;;;13.96;100.00;102765.69;5075421;28;19917;-58
2022/07/17 00:37:42;;;;;;;;;;;;;;;13.92;100.00;102754.22;5075200;28;19970;-58
2022/07/17 00:40:08;;;;;;;;;;;;;;;13.90;100.00;102753.38;5055192;28;19920;-58
2022/07/17 00:42:34;;;;;;;;;;;;;;;13.89;100.00;102754.34;5061226;28;19928;-59
2022/07/17 00:44:59;;;;;;;;;;;;;;;13.86;100.00;102757.06;5075354;28;19924;-57
2022/07/17 00:47:24;;;;;;;;;;;;;;;13.85;100.00;102750.88;5070419;28;19920;-57
2022/07/17 00:49:50;;;;;;;;;;;;;;;13.84;100.00;102758.91;5075127;28;19980;-57
2022/07/17 00:52:16;;;;;;;;;;;;;;;13.83;100.00;102754.50;5075086;28;19967;-58
2022/07/17 00:54:42;;;;;;;;;;;;;;;13.81;100.00;102758.97;5073990;28;19917;-58
2022/07/17 00:57:09;;;;;;;;;;;;;;;13.77;100.00;102751.09;5074868;28;19912;-58
2022/07/17 00:59:35;;;;;;;;;;;;;;;13.73;100.00;102733.47;5075234;28;19913;-58
2022/07/17 01:02:07;;;;;;;;;;;;;;;13.71;100.00;102729.09;5075104;28;19921;-58
2022/07/17 01:04:33;;;;;;;;;;;;;;;13.69;100.00;102720.25;5074735;28;19917;-58
2022/07/17 01:07:00;;;;;;;;;;;;;;;13.66;100.00;102721.22;5074895;28;19920;-58
2022/07/17 01:09:25;;;;;;;;;;;;;;;13.68;100.00;102715.84;5058388;28;20007;-58
2022/07/17 01:11:51;;;;;;;;;;;;;;;13.65;100.00;102724.78;5074596;28;20368;-58
2022/07/17 01:14:16;;;;;;;;;;;;;;;13.63;100.00;102725.75;5074434;28;19969;-58
2022/07/17 01:16:42;;;;;;;;;;;;;;;13.61;100.00;102728.47;5074426;28;20351;-57
2022/07/17 01:19:09;;;;;;;;;;;;;;;13.60;100.00;102737.34;5074318;28;19920;-56
2022/07/17 01:21:41;;;;;;;;;;;;;;;13.59;100.00;102735.59;5074545;28;20387;-57
2022/07/17 01:24:07;;;;;;;;;;;;;;;13.56;100.00;102736.56;5074581;28;19912;-57
2022/07/17 01:26:32;;;;;;;;;;;;;;;13.55;100.00;102732.16;5056757;28;20291;-58
2022/07/17 01:28:57;;;;;;;;;;;;;;;13.55;100.00;102734.81;5056434;28;19913;-58
2022/07/17 01:31:22;;;;;;;;;;;;;;;13.60;100.00;102742.69;5074395;28;19963;-58
2022/07/17 01:33:48;;;;;;;;;;;;;;;13.63;100.00;102747.06;5056871;28;19923;-58
2022/07/17 01:36:13;;;;;;;;;;;;;;;13.63;100.00;102736.41;5074798;28;19913;-58
2022/07/17 01:38:38;;;;;;;;;;;;;;;13.57;100.00;102734.78;5073897;28;20380;-58
2022/07/17 01:41:04;;;;;;;;;;;;;;;13.50;100.00;102731.41;5074024;28;20302;-58
2022/07/17 01:43:29;;;;;;;;;;;;;;;13.44;100.00;102721.81;5056332;28;20269;-58
2022/07/17 01:45:54;;;;;;;;;;;;;;;13.39;100.00;102725.53;5039980;28;20352;-58
2022/07/17 01:48:27;;;;;;;;;;;;;;;13.35;100.00;102737.09;5073879;28;19924;-58
2022/07/17 01:50:52;;;;;;;;;;;;;;;13.30;100.00;102731.03;5073612;28;19921;-58
2022/07/17 01:53:17;;;;;;;;;;;;;;;13.25;100.00;102744.47;5073752;28;20034;-58
2022/07/17 01:55:42;;;;;;;;;;;;;;;13.19;100.00;102741.97;5073828;28;19927;-58
2022/07/17 01:58:08;;;;;;;;;;;;;;;13.16;100.00;102737.59;5056107;28;19921;-57
2022/07/17 02:00:33;;;;;;;;;;;;;;;13.13;100.00;102734.13;5072618;28;19920;-57
2022/07/17 02:02:58;;;;;;;;;;;;;;;13.10;100.00;102738.59;5072951;28;19966;-58
2022/07/17 02:05:23;;;;;;;;;;;;;;;13.05;100.00;102742.28;5073703;28;19930;-58
2022/07/17 02:07:49;;;;;;;;;;;;;;;13.01;100.00;102724.69;5056016;28;19932;-58
2022/07/17 02:10:14;;;;;;;;;;;;;;;12.99;100.00;102729.16;5073306;28;19962;-57
2022/07/17 02:12:39;;;;;;;;;;;;;;;12.98;100.00;102732.72;5073433;28;19944;-58
2022/07/17 02:15:05;;;;;;;;;;;;;;;12.97;100.00;102721.22;5072364;28;19917;-58
2022/07/17 02:17:30;;;;;;;;;;;;;;;12.94;100.00;102718.63;5072265;28;19981;-58
2022/07/17 02:19:56;;;;;;;;;;;;;;;12.93;100.00;102720.41;5073344;28;19992;-58
2022/07/17 02:22:21;;;;;;;;;;;;;;;12.93;100.00;102722.22;5072996;28;19924;-58
2022/07/17 02:24:46;;;;;;;;;;;;;;;12.98;100.00;102727.38;5073276;28;19913;-58
2022/07/17 02:27:12;;;;;;;;;;;;;;;12.99;100.00;102742.44;5073388;28;20013;-57
2022/07/17 02:29:37;;;;;;;;;;;;;;;12.97;100.00;102739.81;5073361;28;20013;-57
2022/07/17 02:32:02;;;;;;;;;;;;;;;12.95;100.00;102744.31;5072414;28;20027;-57
2022/07/17 02:34:27;;;;;;;;;;;;;;;12.95;100.00;102744.31;5073096;28;19923;-57
2022/07/17 02:36:53;;;;;;;;;;;;;;;12.93;100.00;102747.00;5054442;28;19962;-56
2022/07/17 02:39:18;;;;;;;;;;;;;;;12.90;100.00;102747.09;5072038;28;19987;-58
2022/07/17 02:41:43;;;;;;;;;;;;;;;12.87;100.00;102752.47;5073264;28;19966;-58
2022/07/17 02:44:08;;;;;;;;;;;;;;;12.85;100.00;102751.66;5072324;28;19925;-58
2022/07/17 02:46:34;;;;;;;;;;;;;;;12.84;100.00;102755.22;5073176;28;19913;-58
2022/07/17 02:48:59;;;;;;;;;;;;;;;12.83;100.00;102756.13;5073099;28;20315;-56
2022/07/17 02:51:25;;;;;;;;;;;;;;;12.85;100.00;102761.38;5073178;28;19916;-57
2022/07/17 02:53:50;;;;;;;;;;;;;;;12.86;100.00;102757.81;5069647;28;19960;-57
2022/07/17 02:56:15;;;;;;;;;;;;;;;12.84;100.00;102762.28;5056116;28;20435;-57
2022/07/17 02:58:40;;;;;;;;;;;;;;;12.82;100.00;102761.47;5072829;28;19917;-57
2022/07/17 03:01:06;;;;;;;;;;;;;;;12.79;100.00;102757.97;5054896;28;19916;-57
2022/07/17 03:03:31;;;;;;;;;;;;;;;12.77;100.00;102754.50;5072710;28;19977;-57
2022/07/17 03:05:56;;;;;;;;;;;;;;;12.74;100.00;102751.88;5070980;28;19920;-57
2022/07/17 03:08:21;;;;;;;;;;;;;;;12.73;100.00;102763.41;5054125;28;20360;-56
2022/07/17 03:10:47;;;;;;;;;;;;;;;12.71;100.00;102762.59;5054615;28;20307;-56
2022/07/17 03:13:12;;;;;;;;;;;;;;;12.69;100.00;102768.84;5072847;28;19924;-57
2022/07/17 03:15:37;;;;;;;;;;;;;;;12.66;100.00;102755.63;5071872;28;20287;-57
2022/07/17 03:18:03;;;;;;;;;;;;;;;12.65;100.00;102761.84;5072381;28;20345;-57
2022/07/17 03:20:28;;;;;;;;;;;;;;;12.64;100.00;102758.31;5072535;28;19920;-57
2022/07/17 03:22:54;;;;;;;;;;;;;;;12.64;100.00;102766.28;5072277;28;19931;-58
2022/07/17 03:25:19;;;;;;;;;;;;;;;12.63;100.00;102775.16;5071798;28;19934;-58
2022/07/17 03:27:44;;;;;;;;;;;;;;;12.62;100.00;102770.75;5072078;28;19928;-56
2022/07/17 03:30:09;;;;;;;;;;;;;;;12.60;100.00;102760.16;5072182;28;19921;-57
2022/07/17 03:32:34;;;;;;;;;;;;;;;12.59;100.00;102769.03;5072311;28;19986;-54
2022/07/17 03:35:01;;;;;;;;;;;;;;;12.58;100.00;102761.13;5054512;28;19920;-57
2022/07/17 03:37:27;;;;;;;;;;;;;;;12.57;100.00;102770.88;5071793;28;20284;-58
2022/07/17 03:39:52;;;;;;;;;;;;;;;12.58;100.00;102761.13;5072348;28;19925;-58
2022/07/17 03:42:18;;;;;;;;;;;;;;;12.58;100.00;102748.72;5072319;28;19916;-56
2022/07/17 03:44:43;;;;;;;;;;;;;;;12.58;100.00;102746.06;5072268;28;19917;-57
2022/07/17 03:47:09;;;;;;;;;;;;;;;12.61;100.00;102745.97;5071888;28;19925;-57
2022/07/17 03:49:34;;;;;;;;;;;;;;;12.65;100.00;102751.22;5071354;28;19924;-57
2022/07/17 03:51:59;;;;;;;;;;;;;;;12.65;100.00;102751.22;5054143;28;20342;-57
2022/07/17 03:54:24;;;;;;;;;;;;;;;12.65;100.00;102744.13;5072279;28;19959;-57
2022/07/17 03:56:50;;;;;;;;;;;;;;;12.69;100.00;102755.56;5071605;28;20303;-57
2022/07/17 03:59:15;;;;;;;;;;;;;;;12.69;100.00;102751.13;5072165;28;20300;-57
2022/07/17 04:01:40;;;;;;;;;;;;;;;12.68;100.00;102752.00;5054243;28;19927;-57
2022/07/17 04:04:05;;;;;;;;;;;;;;;12.70;100.00;102762.59;5055184;28;19916;-57
2022/07/17 04:06:30;;;;;;;;;;;;;;;12.72;100.00;102752.81;5054305;28;19924;-58
2022/07/17 04:08:56;;;;;;;;;;;;;;;12.75;100.00;102763.41;5071703;28;19943;-58
2022/07/17 04:11:21;;;;;;;;;;;;;;;12.73;100.00;102774.03;5053939;28;19925;-58
2022/07/17 04:13:47;;;;;;;;;;;;;;;12.77;100.00;102780.19;5054166;28;19943;-58
2022/07/17 04:16:12;;;;;;;;;;;;;;;12.82;100.00;102786.25;5071582;28;20023;-53
2022/07/17 04:18:37;;;;;;;;;;;;;;;12.84;100.00;102772.91;5071492;28;19916;-57
2022/07/17 04:21:03;;;;;;;;;;;;;;;12.86;100.00;102777.28;5071829;28;19959;-57
2022/07/17 04:23:29;;;;;;;;;;;;;;;12.89;100.00;102768.38;5071989;28;19916;-58
2022/07/17 04:25:54;;;;;;;;;;;;;;;12.91;100.00;102763.91;5071337;28;20383;-58
2022/07/17 04:28:20;;;;;;;;;;;;;;;12.92;100.00;102779.81;5068341;28;20260;-58
2022/07/17 04:30:45;;;;;;;;;;;;;;;12.97;100.00;102784.16;5052157;28;19966;-58
2022/07/17 04:33:11;;;;;;;;;;;;;;;12.99;100.00;102788.50;5056748;28;20003;-58
2022/07/17 04:35:36;;;;;;;;;;;;;;;13.03;100.00;102776.03;5051621;28;20395;-57
2022/07/17 04:38:02;;;;;;;;;;;;;;;13.06;100.00;102768.00;5060700;28;20053;-58
2022/07/17 04:40:27;;;;;;;;;;;;;;;13.10;100.00;102759.00;5071539;28;20393;-57
2022/07/17 04:42:53;;;;;;;;;;;;;;;13.17;100.00;102770.38;5071316;28;19916;-58
2022/07/17 04:45:18;;;;;;;;;;;;;;;13.23;100.00;102768.41;5070646;28;19927;-58
2022/07/17 04:47:43;;;;;;;;;;;;;;;13.28;100.00;102765.66;5053611;28;19924;-57
2022/07/17 04:50:09;;;;;;;;;;;;;;;13.33;100.00;102771.72;5070392;28;20316;-58
2022/07/17 04:52:34;;;;;;;;;;;;;;;13.39;100.00;102768.09;5070741;28;19944;-57
2022/07/17 04:54:59;;;;;;;;;;;;;;;13.45;100.00;102775.88;5069954;28;19925;-57
2022/07/17 04:57:25;;;;;;;;;;;;;;;13.51;100.00;102767.75;5071533;28;20291;-58
2022/07/17 04:59:50;;;;;;;;;;;;;;;13.61;100.00;102763.06;5047640;28;20273;-58
2022/07/17 05:02:15;;;;;;;;;;;;;;;13.65;100.00;102762.06;5069501;28;19927;-58
2022/07/17 05:04:41;;;;;;;;;;;;;;;13.71;100.00;102761.03;5056566;28;19955;-58
2022/07/17 05:07:06;;;;;;;;;;;;;;;13.82;100.00;102766.06;5073376;28;19924;-58
2022/07/17 05:09:31;;;;;;;;;;;;;;;13.98;100.00;102762.06;5073243;28;19970;-58
2022/07/17 05:11:56;;;;;;;;;;;;;;;14.06;100.00;102765.34;5057623;28;19920;-58
2022/07/17 05:14:22;;;;;;;;;;;;;;;14.15;100.00;102769.53;5074396;28;19921;-58
2022/07/17 05:16:47;;;;;;;;;;;;;;;14.23;100.00;102759.56;5068347;28;19913;-58
2022/07/17 05:19:12;;;;;;;;;;;;;;;14.29;100.00;102754.97;5037029;28;19962;-57
2022/07/17 05:21:38;;;;;;;;;;;;;;;14.34;100.00;102758.38;5057868;28;19920;-57
2022/07/17 05:24:03;;;;;;;;;;;;;;;14.39;100.00;102764.44;5074488;28;19916;-58
2022/07/17 05:26:28;;;;;;;;;;;;;;;14.43;100.00;102769.59;5074003;28;19917;-58
2022/07/17 05:28:54;;;;;;;;;;;;;;;14.46;100.00;102773.09;5074195;28;19921;-58
2022/07/17 05:31:19;;;;;;;;;;;;;;;14.46;100.00;102773.97;5074296;28;20023;-58
2022/07/17 05:33:44;;;;;;;;;;;;;;;14.49;100.00;102779.22;5070997;28;20023;-57
2022/07/17 05:36:09;;;;;;;;;;;;;;;14.54;100.00;102779.06;5074420;28;20418;-58
2022/07/17 05:38:35;;;;;;;;;;;;;;;14.62;100.00;102774.38;5082970;28;19959;-58
2022/07/17 05:41:00;;;;;;;;;;;;;;;14.66;100.00;102775.19;5065612;28;19974;-57
2022/07/17 05:43:25;;;;;;;;;;;;;;;14.70;99.63;102771.50;5069803;28;19925;-58
2022/07/17 05:45:54;;;;;;;;;;;;;;;14.74;99.29;102776.72;5068790;28;20295;-58
2022/07/17 05:48:20;;;;;;;;;;;;;;;14.76;98.86;102773.97;5071287;28;19940;-58
2022/07/17 05:50:45;;;;;;;;;;;;;;;14.81;99.26;102781.81;5074037;28;19920;-57
2022/07/17 05:53:10;;;;;;;;;;;;;;;14.87;99.19;102778.97;5073761;28;19926;-58
2022/07/17 05:55:35;;;;;;;;;;;;;;;14.94;99.12;102783.19;5049947;28;19999;-58
2022/07/17 05:58:01;;;;;;;;;;;;;;;15.02;98.01;102783.81;5059394;28;19925;-58
2022/07/17 06:00:26;;;;;;;;;;;;;;;15.07;96.79;102787.19;5038895;28;19920;-58
2022/07/17 06:02:51;;;;;;;;;;;;;;;15.16;97.22;102793.16;5053936;28;19912;-52
2022/07/17 06:05:17;;;;;;;;;;;;;;;15.22;95.52;102790.31;5054735;28;19962;-58
2022/07/17 06:07:42;;;;;;;;;;;;;;;15.23;94.02;102794.72;5058488;28;19970;-58
2022/07/17 06:10:07;;;;;;;;;;;;;;;15.29;94.55;102796.28;5054100;28;19917;-58
2022/07/17 06:12:33;;;;;;;;;;;;;;;15.32;93.82;102794.41;5062528;28;19924;-58
2022/07/17 06:14:58;;;;;;;;;;;;;;;15.34;93.21;102800.53;5059652;28;20464;-58
2022/07/17 06:17:23;;;;;;;;;;;;;;;15.38;93.84;102812.88;5065769;28;20290;-58
2022/07/17 06:19:51;;;;;;;;;;;;;;;15.45;94.67;102810.88;5069105;28;19924;-56
2022/07/17 06:22:18;;;;;;;;;;;;;;;15.54;95.25;102812.38;5057999;28;19919;-57
2022/07/17 06:24:43;;;;;;;;;;;;;;;15.64;95.99;102813.78;5066905;28;19921;-57
2022/07/17 06:27:08;;;;;;;;;;;;;;;15.71;94.17;102809.09;5053379;28;19924;-57
2022/07/17 06:29:33;;;;;;;;;;;;;;;15.76;92.14;102817.81;5038287;28;19925;-57
2022/07/17 06:31:59;;;;;;;;;;;;;;;15.84;92.00;102814.91;5058437;28;19932;-58
2022/07/17 06:34:24;;;;;;;;;;;;;;;15.92;91.32;102822.66;5149592;22;20388;-80
2022/07/17 06:36:49;;;;;;;;;;;;;;;15.98;91.23;102820.63;5039633;28;19924;-80
2022/07/17 06:39:14;;;;;;;;;;;;;;;16.08;91.25;102823.00;5020471;28;20449;-80
2022/07/17 06:41:40;;;;;;;;;;;;;;;16.16;90.43;102831.59;5035689;28;19924;-81
2022/07/17 06:44:05;;;;;;;;;;;;;;;16.21;90.18;102833.19;5035685;28;19924;-80
2022/07/17 06:46:30;;;;;;;;;;;;;;;16.25;89.70;102833.91;5035677;28;19916;-81
2022/07/17 06:48:55;;;;;;;;;;;;;;;16.32;89.46;102837.25;5021899;28;20361;-81
2022/07/17 06:51:21;;;;;;;;;;;;;;;16.34;91.14;102819.31;5063751;28;19917;-81
2022/07/17 06:53:46;;;;;;;;;;;;;;;16.41;91.04;102817.28;5035236;28;20391;-81
2022/07/17 06:56:11;;;;;;;;;;;;;;;16.48;90.95;102818.81;5035812;28;20007;-80
2022/07/17 06:58:37;;;;;;;;;;;;;;;16.57;89.31;102820.25;5035435;28;19978;-81
2022/07/17 07:01:02;;;;;;;;;;;;;;;16.62;88.62;102827.16;5053108;28;19924;-81
2022/07/17 07:03:27;;;;;;;;;;;;;;;16.70;88.93;102824.19;5062412;28;19921;-80
2022/07/17 07:05:52;;;;;;;;;;;;;;;16.79;89.27;102833.66;5035716;28;20072;-81
2022/07/17 07:08:18;;;;;;;;;;;;;;;16.81;86.28;102837.16;5032252;28;19952;-74
2022/07/17 07:10:44;;;;;;;;;;;;;;;16.85;85.80;102837.00;5049045;28;20691;-73
2022/07/17 07:13:09;;;;;;;;;;;;;;;16.92;85.85;102837.66;5053546;28;20056;-74
2022/07/17 07:15:34;;;;;;;;;;;;;;;16.94;85.67;102840.25;5034843;28;20008;-74
2022/07/17 07:18:00;;;;;;;;;;;;;;;17.04;86.48;102836.28;5040757;28;20018;-74
2022/07/17 07:20:25;;;;;;;;;;;;;;;17.17;85.88;102839.31;5059968;28;19924;-75
2022/07/17 07:22:50;;;;;;;;;;;;;;;17.26;85.73;102838.94;5053389;28;20047;-73
2022/07/17 07:25:16;;;;;;;;;;;;;;;17.38;86.29;102836.69;5057867;28;19929;-74
2022/07/17 07:27:41;;;;;;;;;;;;;;;17.50;86.21;102828.16;5048744;28;19923;-74
2022/07/17 07:30:09;;;;;;;;;;;;;;;17.60;85.42;102824.13;5034700;28;19916;-74
2022/07/17 07:32:35;;;;;;;;;;;;;;;17.69;84.60;102825.53;5053887;28;19924;-74
2022/07/17 07:35:00;;;;;;;;;;;;;;;17.78;84.04;102829.63;5059366;28;19943;-75
2022/07/17 07:37:25;;;;;;;;;;;;;;;17.84;82.63;102824.00;5018415;28;19923;-74
2022/07/17 07:39:51;;;;;;;;;;;;;;;17.81;79.95;102818.78;5034518;28;19916;-75
2022/07/17 07:42:16;;;;;;;;;;;;;;;17.76;80.43;102820.78;5048263;28;19963;-74
2022/07/17 07:44:41;;;;;;;;;;;;;;;17.88;81.40;102822.03;5047744;28;20008;-74
2022/07/17 07:47:06;;;;;;;;;;;;;;;17.98;80.50;102828.75;5022801;28;19916;-74
2022/07/17 07:49:32;;;;;;;;;;;;;;;18.16;80.79;102827.09;5052969;28;20396;-74
2022/07/17 07:51:57;;;;;;;;;;;;;;;18.32;80.23;102822.75;5051478;28;19928;-74
2022/07/17 07:54:22;;;;;;;;;;;;;;;18.50;79.60;102822.84;5035537;28;19928;-75
2022/07/17 07:56:47;;;;;;;;;;;;;;;18.51;77.20;102813.84;5044480;28;19913;-75
2022/07/17 07:59:13;;;;;;;;;;;;;;;18.53;77.54;102825.41;5057039;28;19916;-74
2022/07/17 08:01:38;;;;;;;;;;;;;;;18.57;77.34;102820.72;5049455;28;19963;-73
2022/07/17 08:04:03;;;;;;;;;;;;;;;18.63;75.71;102810.59;5038262;28;19921;-74
2022/07/17 08:06:29;;;;;;;;;;;;;;;18.73;75.74;102813.69;5043408;28;19931;-75
2022/07/17 08:08:54;;;;;;;;;;;;;;;18.83;75.10;102820.34;5057743;28;20014;-75
2022/07/17 08:11:20;;;;;;;;;;;;;;;18.96;75.37;102806.38;5038563;28;19924;-74
2022/07/17 08:13:45;;;;;;;;;;;;;;;19.07;70.83;102811.25;5051325;28;19921;-76
2022/07/17 08:16:10;;;;;;;;;;;;;;;19.15;71.48;102809.03;5036094;28;20012;-76
2022/07/17 08:18:36;;;;;;;;;;;;;;;19.19;71.48;102799.88;5056248;28;19917;-76
2022/07/17 08:21:01;;;;;;;;;;;;;;;19.25;71.41;102810.31;5038117;28;19917;-76
2022/07/17 08:23:27;;;;;;;;;;;;;;;19.34;71.71;102816.16;5047029;28;19932;-76
2022/07/17 08:25:52;;;;;;;;;;;;;;;19.43;70.78;102807.63;5060261;28;20254;-76
2022/07/17 08:28:17;;;;;;;;;;;;;;;19.53;71.51;102808.91;5039172;28;19913;-76
2022/07/17 08:30:42;;;;;;;;;;;;;;;19.59;70.67;102807.69;5047171;28;19921;-74
2022/07/17 08:33:08;;;;;;;;;;;;;;;19.68;71.36;102806.34;5045484;28;19920;-74
2022/07/17 08:35:34;;;;;;;;;;;;;;;19.74;70.51;102809.59;5071614;28;19965;-74
2022/07/17 08:38:00;;;;;;;;;;;;;;;19.81;70.34;102807.47;5037528;28;19925;-74
2022/07/17 08:40:28;;;;;;;;;;;;;;;20.11;69.18;102791.50;5045614;28;19975;-74
2022/07/17 08:42:54;;;;;;;;;;;;;;;20.19;69.93;102803.69;5055653;28;19954;-74
2022/07/17 08:45:20;;;;;;;;;;;;;;;20.30;66.61;102810.22;5042379;28;19974;-76
2022/07/17 08:47:45;;;;;;;;;;;;;;;20.70;64.38;102803.56;5064720;28;20003;-76
2022/07/17 08:50:11;;;;;;;;;;;;;;;21.55;58.73;102801.41;5059051;28;19932;-75
2022/07/17 08:52:37;;;;;;;;;;;;;;;22.52;56.51;102807.97;5043197;28;19964;-75
2022/07/17 08:55:03;;;;;;;;;;;;;;;23.54;47.35;102793.13;5038123;28;19924;-76
2022/07/17 08:57:28;;;;;;;;;;;;;;;24.10;43.84;102800.09;5059303;28;19920;-76
2022/07/17 08:59:54;;;;;;;;;;;;;;;24.44;43.36;102798.50;5039685;28;19988;-76
2022/07/17 09:02:19;;;;;;;;;;;;;;;25.22;42.25;102793.66;5055518;28;20296;-76
2022/07/17 09:04:53;;;;;;;;;;;;;;;25.75;40.52;102797.75;5064981;28;19924;-76
2022/07/17 09:07:18;;;;;;;;;;;;;;;26.47;38.36;102804.69;5048582;28;20334;-76
2022/07/17 09:09:48;;;;;;;;;;;;;;;26.65;37.55;102800.47;5037137;28;20571;-76
2022/07/17 09:12:14;;;;;;;;;;;;;;;27.19;36.77;102797.81;5062128;28;19927;-76
2022/07/17 09:14:41;;;;;;;;;;;;;;;27.33;37.23;102801.19;5021204;28;19925;-75
2022/07/17 09:17:07;;;;;;;;;;;;;;;27.31;35.44;102798.63;5028089;28;19962;-76
2022/07/17 09:19:37;;;;;;;;;;;;;;;27.37;35.19;102802.69;5037058;28;19916;-76
2022/07/17 09:22:06;;;;;;;;;;;;;;;27.09;36.25;102796.88;5036602;28;19919;-76
2022/07/17 09:24:48;;;;;;;;;;;;;;;27.31;34.38;102806.78;5051338;28;19920;-76
2022/07/17 09:27:17;;;;;;;;;;;;;;;27.27;34.32;102805.31;5062487;28;19916;-76
2022/07/17 09:29:51;;;;;;;;;;;;;;;27.35;34.60;102805.53;5055202;28;19917;-75
2022/07/17 09:32:18;;;;;;;;;;;;;;;27.51;34.88;102796.06;5050136;28;19921;-76
2022/07/17 09:34:43;;;;;;;;;;;;;;;27.73;36.72;102792.34;5031159;28;19925;-75
2022/07/17 09:37:09;;;;;;;;;;;;;;;28.19;34.15;102791.00;5054548;28;20020;-76
2022/07/17 09:39:37;;;;;;;;;;;;;;;28.02;35.15;102791.59;5054405;28;19917;-76
2022/07/17 09:42:03;;;;;;;;;;;;;;;28.58;34.44;102801.13;5036809;28;19924;-76
2022/07/17 09:44:28;;;;;;;;;;;;;;;28.20;33.58;102797.28;5042458;28;19917;-76
2022/07/17 09:46:54;;;;;;;;;;;;;;;28.01;34.25;102806.25;5053819;28;19916;-76
2022/07/17 09:49:19;;;;;;;;;;;;;;;28.38;32.98;102797.53;5036628;28;19925;-76
2022/07/17 09:51:46;;;;;;;;;;;;;;;28.53;33.78;102790.66;5064458;28;19920;-76
2022/07/17 09:54:11;;;;;;;;;;;;;;;27.93;33.34;102788.72;5054211;28;19916;-76
2022/07/17 09:56:37;;;;;;;;;;;;;;;27.86;32.46;102784.81;5020066;28;20295;-76
2022/07/17 09:59:04;;;;;;;;;;;;;;;27.98;35.22;102787.44;5049750;28;19913;-76
2022/07/17 10:01:30;;;;;;;;;;;;;;;28.26;35.39;102797.63;5053816;28;19920;-76
2022/07/17 10:03:55;;;;;;;;;;;;;;;28.07;33.77;102800.25;5044496;28;19916;-76
2022/07/17 10:06:21;;;;;;;;;;;;;;;28.19;33.22;102796.44;5041382;28;19927;-76
2022/07/17 10:08:46;;;;;;;;;;;;;;;28.29;32.97;102801.94;5058777;28;19917;-76
2022/07/17 10:11:14;;;;;;;;;;;;;;;28.60;33.51;102805.44;5035538;28;20281;-76
2022/07/17 10:13:40;;;;;;;;;;;;;;;28.59;30.56;102805.59;5048042;28;19917;-77
2022/07/17 10:16:06;;;;;;;;;;;;;;;28.48;32.77;102809.31;5050447;28;19916;-76
2022/07/17 10:18:41;;;;;;;;;;;;;;;28.32;32.71;102808.97;5074410;28;19969;-76
2022/07/17 10:21:10;;;;;;;;;;;;;;;28.24;32.14;102813.22;5051247;28;19924;-77
2022/07/17 10:23:36;;;;;;;;;;;;;;;28.36;33.60;102804.97;5049392;28;19958;-76
2022/07/17 10:26:01;;;;;;;;;;;;;;;28.59;33.62;102802.84;5036726;28;19928;-76
2022/07/17 10:28:40;;;;;;;;;;;;;;;29.11;33.98;102808.09;5066505;28;20296;-76
2022/07/17 10:31:05;;;;;;;;;;;;;;;29.42;32.06;102814.25;5055632;28;19921;-76
2022/07/17 10:33:30;;;;;;;;;;;;;;;29.27;29.37;102810.22;5037106;28;19925;-76
2022/07/17 10:35:59;;;;;;;;;;;;;;;28.85;30.81;102807.78;5054615;28;19905;-76
2022/07/17 10:38:26;;;;;;;;;;;;;;;28.94;33.02;102807.81;5067472;28;19905;-76
2022/07/17 10:40:59;;;;;;;;;;;;;;;29.35;30.19;102815.88;5067170;28;19943;-76
2022/07/17 10:43:25;;;;;;;;;;;;;;;28.72;30.29;102818.97;5062860;28;19921;-76
2022/07/17 10:45:50;;;;;;;;;;;;;;;28.92;32.47;102814.41;5060486;28;19920;-76
2022/07/17 10:48:20;;;;;;;;;;;;;;;28.81;34.03;102817.28;5029078;28;19955;-75
2022/07/17 10:50:46;;;;;;;;;;;;;;;28.28;32.08;102809.22;5053515;28;19951;-75
2022/07/17 10:53:17;;;;;;;;;;;;;;;28.58;31.78;102817.47;5068518;28;20061;-75
2022/07/17 10:55:46;;;;;;;;;;;;;;;29.16;33.33;102803.06;5047791;28;20637;-75
2022/07/17 10:58:32;;;;;;;;;;;;;;;30.10;31.80;102809.66;5049249;28;19917;-75
2022/07/17 11:01:03;;;;;;;;;;;;;;;30.14;30.35;102802.00;5036409;28;20404;-76
2022/07/17 11:03:29;;;;;;;;;;;;;;;30.01;29.75;102808.69;5053913;28;20292;-77
2022/07/17 11:06:05;;;;;;;;;;;;;;;30.22;28.93;102810.34;5032240;28;19956;-76
2022/07/17 11:08:31;;;;;;;;;;;;;;;29.87;29.76;102812.75;5046858;28;19921;-76
2022/07/17 11:10:57;;;;;;;;;;;;;;;29.43;29.44;102806.97;5067486;28;20016;-77
2022/07/17 11:13:22;;;;;;;;;;;;;;;29.20;30.28;102800.94;5038681;28;20003;-76
2022/07/17 11:15:48;;;;;;;;;;;;;;;29.51;30.37;102798.88;5044044;28;19959;-76
2022/07/17 11:18:20;;;;;;;;;;;;;;;29.85;29.90;102801.09;5035824;28;19913;-76
2022/07/17 11:21:04;;;;;;;;;;;;;;;30.22;31.20;102793.94;5042424;28;20462;-76
2022/07/17 11:23:31;;;;;;;;;;;;;;;30.86;27.74;102796.72;5045027;28;19921;-76
2022/07/17 11:25:59;;;;;;;;;;;;;;;31.09;27.59;102796.25;5034961;28;20012;-76
2022/07/17 11:28:28;;;;;;;;;;;;;;;31.10;30.27;102800.69;5034822;28;19912;-76
2022/07/17 11:30:59;;;;;;;;;;;;;;;30.80;27.19;102802.81;5052183;28;19924;-76
2022/07/17 11:33:25;;;;;;;;;;;;;;;30.97;27.73;102799.19;5060693;28;19920;-76
2022/07/17 11:35:50;;;;;;;;;;;;;;;31.07;30.01;102796.41;5035151;28;19927;-76
2022/07/17 11:38:15;;;;;;;;;;;;;;;31.29;29.83;102794.19;5052454;28;19921;-76
2022/07/17 11:40:50;;;;;;;;;;;;;;;31.47;27.29;102805.09;5035192;28;20399;-77
2022/07/17 11:43:16;;;;;;;;;;;;;;;31.26;26.79;102802.72;5046907;28;19958;-76
2022/07/17 11:45:42;;;;;;;;;;;;;;;30.86;27.35;102800.28;5042265;28;19964;-76
2022/07/17 11:48:07;;;;;;;;;;;;;;;31.02;27.81;102799.56;5050227;28;19920;-77
2022/07/17 11:50:32;;;;;;;;;;;;;;;31.14;27.67;102796.63;5019111;28;19917;-76
2022/07/17 11:53:02;;;;;;;;;;;;;;;31.16;26.23;102798.19;5022680;28;19959;-76
2022/07/17 11:55:38;;;;;;;;;;;;;;;31.23;26.74;102800.28;5037755;28;19917;-76
2022/07/17 11:58:04;;;;;;;;;;;;;;;31.14;26.80;102802.09;5034458;28;20035;-76
2022/07/17 12:00:30;;;;;;;;;;;;;;;30.71;26.24;102799.97;5034747;28;20016;-76
2022/07/17 12:03:02;;;;;;;;;;;;;;;30.39;27.33;102804.03;5052639;28;20007;-76
2022/07/17 12:05:28;;;;;;;;;;;;;;;30.20;27.41;102802.25;5052763;28;19958;-76
2022/07/17 12:07:54;;;;;;;;;;;;;;;30.31;28.97;102800.34;5034468;28;19917;-76
2022/07/17 12:10:21;;;;;;;;;;;;;;;30.26;26.88;102794.47;5054748;28;19920;-76
2022/07/17 12:13:06;;;;;;;;;;;;;;;30.05;27.87;102787.38;5034765;28;19928;-76
2022/07/17 12:15:58;;;;;;;;;;;;;;;30.91;26.64;102783.44;5049724;28;19944;-76
2022/07/17 12:18:23;;;;;;;;;;;;;;;31.09;27.69;102780.69;5058462;28;19917;-76
2022/07/17 12:20:50;;;;;;;;;;;;;;;31.33;25.74;102780.03;5053880;28;19912;-77
2022/07/17 12:23:27;;;;;;;;;;;;;;;31.26;26.45;102776.22;5059847;28;19920;-77
2022/07/17 12:26:03;;;;;;;;;;;;;;;31.49;27.02;102775.69;5071079;28;19916;-77
2022/07/17 12:28:28;;;;;;;;;;;;;;;31.73;28.92;102768.66;5056508;28;19913;-77